Details From EGLL - London Heathrow
To LFRK - Caen Carpiquet
Flight Number -
Tags generated
Created
Modified
Stats Distance 138 nm / 255 km
Max Altitude 9,600 ft / 2,926 m
Waypoints 3
Social Downloads 0
Likes 0
Share VATSIM

Download

Looking for another format? Having issues loading an existing format? Contact us
Advertisement - Login to hide

Notes

Basic altitude profile: - Ascent Rate: 2500ft/min - Ascent Speed: 250kts - Cruise Altitude: 35000ft - Cruise Speed: 420kts - Descent Rate: 1500ft/min - Descent Speed: 250kts

Route

EGLL ANGLO LFRK

ID Type Via Altitude Latitude Longitude Leg Dist Tot Dist Heading (true) Name
O EGLL APT - 0 ft / 0 m 51.47122˚ -0.46098˚ - 0 nm - London Heathrow
ANGLO FIX - 9,600 ft / 2,926 m 49.92833˚ -0.45500˚ 92 nm 92 nm 180° / 180° -
O LFRK APT - 0 ft / 0 m 49.17512˚ -0.45194˚ 45 nm 137 nm 180° / 180° Caen Carpiquet

Altitude Profile

Advertisement - Login to hide

EGLL

Details ICAO EGLL (LHR)
Name London Heathrow
Region United Kingdom
Timezone Europe/London (UTC+0.0)
Stats Elevation 83 ft / 25 m (AMSL)
Location 51.471218° -0.460978°
Runways 2
Magnetic Variation 0.561° W

METAR

EGLL 120820Z AUTO 27008KT 8000 NCD M02/M04 Q1008 NOSIG

Decode

TAF

TAF EGLL 120458Z 1206/1312 28006KT CAVOK PROB30 TEMPO 1206/1209 6000 PROB30 1216/1222 7000 BECMG 1222/1224 20012KT TEMPO 1222/1306 7000 -RA BKN014 PROB30 TEMPO 1300/1306 20015G25KT 3000 RADZ BKN005 PROB30 TEMPO 1310/1312 7000 -SHRA BKN012

Decode

Departure Runways

ID Width Length Bearing (true) Bearing (mag) Surface Threshold Offset Overrun Length
09L 164 ft / 50 m 12,811 ft / 3,905 m 89.64° 90.20° Asphalt 1,004 ft / 306 m 0 ft / 0 m
09R 164 ft / 50 m 12,019 ft / 3,663 m 89.67° 90.23° Asphalt 1,007 ft / 307 m 0 ft / 0 m
27L 164 ft / 50 m 12,019 ft / 3,663 m 269.71° 270.27° Asphalt 0 ft / 0 m 69 ft / 21 m
27R 164 ft / 50 m 12,811 ft / 3,905 m 269.69° 270.25° Asphalt 0 ft / 0 m 69 ft / 21 m

LFRK

Details ICAO LFRK (CFR)
Name Caen Carpiquet
Region France
Timezone Europe/Paris (UTC+1.0)
Stats Elevation 256 ft / 78 m (AMSL)
Location 49.175122° -0.451941°
Runways 2
Magnetic Variation 0.322° W

METAR

LFRK 120830Z AUTO 22008KT CAVOK 01/M00 Q1009 NOSIG

Decode

TAF

Not found

Destination Runways

ID Width Length Bearing (true) Bearing (mag) Surface Threshold Offset Overrun Length
06 98 ft / 30 m 3,880 ft / 1,183 m 51.68° 52.00° Asphalt 0 ft / 0 m 0 ft / 0 m
13 148 ft / 45 m 6,215 ft / 1,894 m 125.34° 125.66° Asphalt 984 ft / 300 m 0 ft / 0 m
24 98 ft / 30 m 3,880 ft / 1,183 m 231.69° 232.01° Asphalt 0 ft / 0 m 0 ft / 0 m
31 148 ft / 45 m 6,215 ft / 1,894 m 305.36° 305.68° Asphalt 0 ft / 0 m 0 ft / 0 m

Approach Navaids

Runway Type Ident Frequency Range Bearing (true) Bearing (mag) Slope Elevation
31 Localiser CN 110.95 MHz 18 nm / 33 km 305.34° 305.66° - 231 ft / 70 m (AMSL)
31 Glidescope CN 110.95 MHz 10 nm / 19 km 305.35° 305.67° 3.00° 233 ft / 71 m (AMSL)
31 DME CN 110.95 MHz 18 nm / 33 km - - - 233 ft / 71 m (AMSL)

Popular Alternatives